Time;durP1;ratioP1;P1;durP2;ratioP2;P2;SDS_P1;SDS_P2;PMS_P1;PMS_P2;Temp;Humidity;BMP_temperature;BMP_pressure;BME280_temperature;BME280_humidity;BME280_pressure;Samples;Min_cycle;Max_cycle;Signal;HPM_P1;HPM_P2
2023/06/21 00:00:45;;;;;;;9.20;6.60;;;21.30;90.10;;;;;;5118209;28;20446;-76
2023/06/21 00:03:11;;;;;;;7.97;5.93;;;21.30;90.20;;;;;;5101259;28;20050;-76
2023/06/21 00:05:38;;;;;;;8.60;6.07;;;21.30;90.10;;;;;;5118037;28;20040;-76
2023/06/21 00:08:04;;;;;;;10.38;6.40;;;21.30;90.30;;;;;;5118272;28;20033;-76
2023/06/21 00:10:31;;;;;;;9.00;6.05;;;21.40;90.30;;;;;;5118030;28;20030;-76
2023/06/21 00:12:57;;;;;;;8.95;6.50;;;21.30;90.20;;;;;;5117909;28;20083;-76
2023/06/21 00:15:23;;;;;;;8.95;6.32;;;21.30;90.10;;;;;;5135958;28;20024;-76
2023/06/21 00:17:49;;;;;;;9.63;6.60;;;21.30;90.20;;;;;;5136034;28;20030;-76
2023/06/21 00:20:15;;;;;;;10.07;6.53;;;21.30;90.10;;;;;;5100877;28;20095;-76
2023/06/21 00:22:45;;;;;;;10.38;6.78;;;21.30;90.00;;;;;;5117619;28;20023;-76
2023/06/21 00:25:11;;;;;;;10.90;6.80;;;21.40;90.00;;;;;;5117699;28;20020;-77
2023/06/21 00:27:37;;;;;;;7.68;6.15;;;21.30;90.00;;;;;;5100964;28;20061;-77
2023/06/21 00:30:04;;;;;;;9.68;6.75;;;21.30;90.20;;;;;;5135652;28;20028;-76
2023/06/21 00:32:30;;;;;;;9.52;6.85;;;21.30;90.20;;;;;;5117600;28;20027;-76
2023/06/21 00:34:55;;;;;;;9.98;6.97;;;21.20;90.40;;;;;;5135466;28;20027;-77
2023/06/21 00:37:21;;;;;;;10.20;7.05;;;21.10;90.60;;;;;;5100489;28;20024;-76
2023/06/21 00:39:47;;;;;;;11.23;6.60;;;21.00;90.90;;;;;;5117520;28;20038;-77
2023/06/21 00:42:13;;;;;;;10.80;7.25;;;21.00;90.90;;;;;;5100262;28;20063;-76
2023/06/21 00:44:39;;;;;;;11.45;7.68;;;21.00;90.90;;;;;;5117422;28;20019;-76
2023/06/21 00:47:05;;;;;;;9.93;7.38;;;20.90;91.00;;;;;;5117298;28;20033;-77
2023/06/21 00:49:31;;;;;;;10.10;7.28;;;20.80;91.20;;;;;;5116342;28;20047;-76
2023/06/21 00:52:00;;;;;;;11.82;6.90;;;20.70;91.50;;;;;;5117128;28;20099;-77
2023/06/21 00:54:32;;;;;;;11.18;6.75;;;20.70;91.60;;;;;;5084252;28;20057;-77
2023/06/21 00:56:57;;;;;;;12.07;7.43;;;20.70;91.70;;;;;;5117046;28;20111;-76
2023/06/21 00:59:27;;;;;;;11.13;6.95;;;20.80;91.60;;;;;;5117277;28;20028;-76
2023/06/21 01:01:55;;;;;;;10.73;7.20;;;20.80;91.40;;;;;;5117641;28;20092;-76
2023/06/21 01:04:22;;;;;;;9.35;6.95;;;20.90;91.40;;;;;;5134992;28;20038;-76
2023/06/21 01:07:16;;;;;;;11.55;7.18;;;20.80;91.30;;;;;;5117282;28;20024;-76
2023/06/21 01:10:02;;;;;;;10.55;7.15;;;20.80;91.40;;;;;;5116963;28;20024;-77
2023/06/21 01:13:08;;;;;;;10.75;7.53;;;20.70;91.40;;;;;;5116670;28;20057;-77
2023/06/21 01:15:43;;;;;;;10.15;6.53;;;20.70;91.40;;;;;;5134985;28;20023;-77
2023/06/21 01:18:13;;;;;;;10.95;7.68;;;20.70;91.50;;;;;;5134939;28;20034;-78
2023/06/21 01:20:40;;;;;;;10.60;7.38;;;20.70;91.50;;;;;;5116833;28;20019;-76
2023/06/21 01:23:12;;;;;;;10.95;7.30;;;20.60;91.50;;;;;;5134681;28;20072;-76
2023/06/21 01:26:06;;;;;;;11.23;7.20;;;20.60;91.50;;;;;;5116710;28;20041;-76
2023/06/21 01:28:43;;;;;;;9.98;7.10;;;20.80;91.40;;;;;;5134623;28;20026;-76
2023/06/21 01:31:15;;;;;;;10.13;7.03;;;20.80;91.30;;;;;;5134461;28;20023;-76
2023/06/21 01:33:42;;;;;;;11.15;7.57;;;20.80;91.30;;;;;;5116523;28;20031;-77
2023/06/21 01:36:09;;;;;;;10.63;6.95;;;20.70;91.30;;;;;;5116472;28;20024;-77
2023/06/21 01:38:35;;;;;;;11.60;7.45;;;20.70;91.30;;;;;;5116394;28;20020;-77
2023/06/21 01:41:01;;;;;;;10.13;7.50;;;20.80;91.20;;;;;;5082696;28;20038;-76
2023/06/21 01:43:29;;;;;;;11.50;7.22;;;20.80;91.30;;;;;;5134346;28;20015;-76
2023/06/21 01:45:55;;;;;;;11.13;7.18;;;20.80;91.10;;;;;;5116282;28;20032;-77
2023/06/21 01:48:22;;;;;;;10.52;7.93;;;20.80;91.10;;;;;;5099471;28;20424;-77
2023/06/21 01:50:50;;;;;;;10.20;7.25;;;20.80;91.00;;;;;;5134078;28;20048;-77
2023/06/21 01:53:16;;;;;;;10.77;7.53;;;20.80;91.00;;;;;;5116321;28;20023;-77
2023/06/21 01:55:49;;;;;;;12.10;7.40;;;20.80;91.00;;;;;;5134132;28;20083;-76
2023/06/21 01:58:16;;;;;;;10.93;7.35;;;20.80;90.90;;;;;;5134400;28;20031;-76
2023/06/21 02:00:42;;;;;;;11.25;7.72;;;20.90;90.90;;;;;;5133858;28;20024;-76
2023/06/21 02:03:13;;;;;;;11.68;7.00;;;20.90;90.80;;;;;;5099190;28;20032;-77
2023/06/21 02:05:41;;;;;;;10.98;7.75;;;20.90;90.80;;;;;;5099910;28;20115;-77
2023/06/21 02:08:15;;;;;;;11.05;7.63;;;20.90;90.80;;;;;;5133989;28;20027;-77
2023/06/21 02:10:44;;;;;;;14.27;8.40;;;20.90;90.70;;;;;;5115995;28;20024;-76
2023/06/21 02:13:10;;;;;;;11.52;8.40;;;20.90;90.80;;;;;;5133994;28;20020;-77
2023/06/21 02:15:38;;;;;;;15.55;8.18;;;20.90;90.70;;;;;;5115805;28;20042;-77
2023/06/21 02:18:04;;;;;;;11.13;7.95;;;20.90;90.40;;;;;;5133907;28;20019;-77
2023/06/21 02:20:29;;;;;;;11.05;8.02;;;20.80;90.40;;;;;;5116066;28;20034;-77
2023/06/21 02:22:55;;;;;;;13.43;8.52;;;20.70;90.70;;;;;;5116052;28;20051;-76
2023/06/21 02:25:21;;;;;;;12.05;8.48;;;20.70;90.50;;;;;;5133857;28;20027;-77
2023/06/21 02:27:47;;;;;;;12.48;8.07;;;20.60;90.80;;;;;;5133944;28;20027;-77
2023/06/21 02:30:13;;;;;;;11.48;8.10;;;20.70;90.90;;;;;;5116018;28;20079;-77
2023/06/21 02:32:39;;;;;;;11.43;8.07;;;20.80;90.80;;;;;;5098938;28;20020;-77
2023/06/21 02:35:05;;;;;;;12.13;8.40;;;20.80;90.70;;;;;;5115705;28;20030;-77
2023/06/21 02:37:31;;;;;;;10.52;7.70;;;20.80;90.60;;;;;;5115670;28;20043;-77
2023/06/21 02:39:57;;;;;;;12.95;8.90;;;20.70;90.50;;;;;;5115757;28;20039;-77
2023/06/21 02:42:23;;;;;;;15.57;8.73;;;20.60;90.40;;;;;;5115681;28;20087;-77
2023/06/21 02:44:49;;;;;;;11.70;8.32;;;20.50;90.70;;;;;;5133650;28;20023;-77
2023/06/21 02:47:14;;;;;;;11.52;8.07;;;20.30;91.10;;;;;;5115727;28;20027;-76
2023/06/21 02:49:40;;;;;;;12.15;8.68;;;20.20;91.30;;;;;;5115516;28;20107;-77
2023/06/21 02:52:06;;;;;;;14.43;9.98;;;20.20;91.60;;;;;;5098648;28;20036;-76
2023/06/21 02:54:32;;;;;;;13.95;9.02;;;20.10;91.90;;;;;;5098730;28;20032;-77
2023/06/21 02:56:58;;;;;;;14.60;8.95;;;20.10;92.10;;;;;;5133507;28;20036;-77
2023/06/21 02:59:23;;;;;;;13.35;8.80;;;19.80;92.70;;;;;;5098813;28;20032;-77
2023/06/21 03:01:49;;;;;;;16.17;9.27;;;19.70;93.40;;;;;;5098664;28;20043;-77
2023/06/21 03:04:16;;;;;;;13.30;8.73;;;19.80;93.10;;;;;;5115660;28;20031;-77
2023/06/21 03:06:42;;;;;;;12.30;8.77;;;19.90;93.00;;;;;;5098697;28;20031;-77
2023/06/21 03:09:08;;;;;;;12.57;8.27;;;19.90;92.80;;;;;;5098623;28;20028;-77
2023/06/21 03:11:34;;;;;;;15.27;9.60;;;20.00;92.60;;;;;;5115605;28;20031;-77
2023/06/21 03:13:59;;;;;;;15.75;9.25;;;20.10;92.40;;;;;;5118907;28;20031;-77
2023/06/21 03:16:25;;;;;;;13.73;9.45;;;20.10;92.30;;;;;;5137125;28;20046;-77
2023/06/21 03:18:50;;;;;;;10.82;8.32;;;20.20;92.10;;;;;;5102034;28;20438;-77
2023/06/21 03:21:16;;;;;;;15.82;8.90;;;20.10;92.00;;;;;;5118982;28;20034;-77
2023/06/21 03:23:42;;;;;;;15.15;9.27;;;20.10;92.00;;;;;;5118942;28;20060;-77
2023/06/21 03:26:07;;;;;;;13.60;9.18;;;20.00;92.10;;;;;;5119088;28;20027;-77
2023/06/21 03:28:33;;;;;;;15.25;9.20;;;19.90;92.20;;;;;;5136880;28;20111;-77
2023/06/21 03:30:59;;;;;;;13.38;8.60;;;19.90;92.40;;;;;;5118914;28;20042;-77
2023/06/21 03:33:24;;;;;;;13.48;9.30;;;19.80;92.70;;;;;;5118725;28;20035;-77
2023/06/21 03:35:50;;;;;;;12.35;8.45;;;19.80;92.90;;;;;;5085117;28;20046;-77
2023/06/21 03:38:17;;;;;;;14.48;9.23;;;19.90;92.80;;;;;;5118814;28;20046;-77
2023/06/21 03:40:43;;;;;;;14.32;9.70;;;19.90;92.80;;;;;;5101865;28;20019;-77
2023/06/21 03:43:09;;;;;;;14.27;9.30;;;20.00;92.60;;;;;;5118518;28;20094;-77
2023/06/21 03:45:35;;;;;;;10.93;8.18;;;20.10;92.50;;;;;;5136560;28;20091;-77
2023/06/21 03:48:04;;;;;;;14.05;9.13;;;20.10;92.30;;;;;;5084836;28;20020;-77
2023/06/21 03:50:30;;;;;;;13.82;9.25;;;20.20;92.10;;;;;;5102352;28;20046;-77
2023/06/21 03:52:55;;;;;;;12.90;9.57;;;20.20;92.10;;;;;;5118354;28;20027;-77
2023/06/21 03:55:21;;;;;;;18.00;10.90;;;20.20;92.10;;;;;;5101438;28;20057;-77
2023/06/21 03:57:47;;;;;;;15.63;9.70;;;20.30;91.80;;;;;;5101375;28;20095;-78
2023/06/21 04:00:13;;;;;;;16.13;10.30;;;20.20;91.80;;;;;;5101292;28;20112;-78
2023/06/21 04:02:39;;;;;;;15.27;10.13;;;20.00;92.20;;;;;;5084784;28;20031;-78
2023/06/21 04:05:05;;;;;;;15.18;10.38;;;19.90;92.60;;;;;;5101350;28;20091;-77
2023/06/21 04:07:31;;;;;;;18.42;11.05;;;19.90;92.80;;;;;;5136074;28;20023;-78
2023/06/21 04:09:57;;;;;;;15.32;10.23;;;19.90;92.90;;;;;;5101159;28;20040;-78
2023/06/21 04:12:22;;;;;;;15.80;10.35;;;19.90;92.80;;;;;;5118383;28;20027;-78
2023/06/21 04:14:48;;;;;;;16.80;10.98;;;19.80;93.10;;;;;;5101191;28;20049;-77
2023/06/21 04:17:14;;;;;;;16.77;10.77;;;19.90;93.30;;;;;;5117851;28;20106;-78
2023/06/21 04:19:39;;;;;;;18.80;11.82;;;19.90;93.60;;;;;;5101096;28;20032;-78
2023/06/21 04:22:05;;;;;;;17.90;11.07;;;19.90;93.30;;;;;;5135915;28;20027;-78
2023/06/21 04:24:31;;;;;;;16.23;11.40;;;19.80;93.50;;;;;;5116639;28;20031;-78
2023/06/21 04:26:58;;;;;;;19.38;11.82;;;19.80;93.60;;;;;;5117675;28;20030;-78
2023/06/21 04:29:25;;;;;;;18.15;11.80;;;19.80;93.70;;;;;;5084573;28;20020;-78
2023/06/21 04:31:52;;;;;;;19.48;11.65;;;19.90;93.70;;;;;;5135674;28;20378;-77
2023/06/21 04:34:19;;;;;;;17.65;11.18;;;19.90;93.70;;;;;;5135557;28;20022;-78
2023/06/21 04:36:48;;;;;;;17.85;11.65;;;20.00;93.80;;;;;;5135516;28;20023;-77
2023/06/21 04:39:17;;;;;;;16.45;10.65;;;20.00;93.80;;;;;;5117421;28;20500;-78
2023/06/21 04:41:46;;;;;;;18.60;12.82;;;20.10;93.80;;;;;;5117280;28;20054;-78
2023/06/21 04:44:12;;;;;;;22.13;13.00;;;20.20;93.80;;;;;;5135385;28;20035;-77
2023/06/21 04:46:38;;;;;;;22.15;13.95;;;20.20;93.90;;;;;;5117299;28;20022;-77
2023/06/21 04:49:04;;;;;;;22.98;14.05;;;20.20;94.00;;;;;;5100238;28;20047;-77
2023/06/21 04:51:30;;;;;;;20.40;13.68;;;20.10;94.00;;;;;;5100244;28;20074;-77
2023/06/21 04:54:00;;;;;;;20.00;13.43;;;20.10;94.10;;;;;;5100240;28;20027;-77
2023/06/21 04:56:26;;;;;;;22.52;14.18;;;20.10;94.20;;;;;;5117116;28;20110;-78
2023/06/21 04:58:52;;;;;;;21.00;13.90;;;20.10;94.20;;;;;;5135225;28;20052;-78
2023/06/21 05:01:18;;;;;;;22.77;13.18;;;20.20;94.10;;;;;;5116971;28;20031;-78
2023/06/21 05:03:47;;;;;;;20.70;13.77;;;20.20;94.10;;;;;;5117121;28;20024;-78
2023/06/21 05:06:14;;;;;;;22.88;14.13;;;20.30;94.00;;;;;;5101636;28;20026;-78
2023/06/21 05:08:41;;;;;;;23.60;14.85;;;20.30;94.00;;;;;;5134961;28;20026;-78
2023/06/21 05:11:06;;;;;;;25.40;15.10;;;20.40;94.00;;;;;;5134883;28;20026;-78
2023/06/21 05:13:32;;;;;;;23.15;14.73;;;20.40;93.90;;;;;;5099877;28;20012;-78
2023/06/21 05:15:58;;;;;;;22.50;14.52;;;20.50;93.90;;;;;;5116788;28;20028;-78
2023/06/21 05:18:24;;;;;;;26.42;16.20;;;20.50;93.80;;;;;;5116717;28;20031;-79
2023/06/21 05:20:49;;;;;;;26.70;16.38;;;20.50;93.80;;;;;;5083132;28;20024;-79
2023/06/21 05:23:15;;;;;;;24.88;16.27;;;20.50;94.00;;;;;;5116565;28;20043;-80
2023/06/21 05:25:40;;;;;;;28.33;16.52;;;20.40;94.20;;;;;;5099700;28;20035;-79
2023/06/21 05:28:06;;;;;;;23.13;16.13;;;20.50;94.20;;;;;;5116581;28;20024;-79
2023/06/21 05:30:32;;;;;;;24.85;15.35;;;20.50;94.20;;;;;;5099562;28;20466;-78
2023/06/21 05:32:58;;;;;;;24.35;15.50;;;20.60;94.10;;;;;;5099709;28;20047;-78
2023/06/21 05:35:23;;;;;;;25.25;15.60;;;20.50;94.30;;;;;;5116052;28;20050;-77
2023/06/21 05:37:52;;;;;;;25.85;16.48;;;20.50;94.40;;;;;;5134417;28;20359;-77
2023/06/21 05:40:18;;;;;;;26.90;16.67;;;20.50;94.50;;;;;;5134355;28;20020;-78
2023/06/21 05:42:44;;;;;;;28.00;17.10;;;20.60;94.40;;;;;;5099558;28;20031;-78
2023/06/21 05:45:10;;;;;;;25.40;15.73;;;20.70;94.40;;;;;;5116383;28;20026;-78
2023/06/21 05:47:36;;;;;;;27.52;16.98;;;20.70;94.30;;;;;;5116446;28;20026;-78
2023/06/21 05:50:02;;;;;;;26.13;16.25;;;20.80;94.30;;;;;;5099222;28;20040;-78
2023/06/21 05:52:29;;;;;;;30.95;17.92;;;20.70;94.50;;;;;;5134210;28;20023;-78
2023/06/21 05:54:54;;;;;;;34.33;18.58;;;20.70;95.30;;;;;;5134266;28;20087;-78
2023/06/21 05:57:20;;;;;;;29.25;18.55;;;20.70;95.20;;;;;;5116008;28;20030;-76
2023/06/21 05:59:46;;;;;;;26.63;17.10;;;20.80;94.90;;;;;;5133940;28;20024;-77
2023/06/21 06:02:12;;;;;;;26.13;16.90;;;20.80;94.90;;;;;;5133984;28;20019;-76
2023/06/21 06:04:38;;;;;;;29.42;17.85;;;20.90;94.80;;;;;;5134031;28;20027;-77
2023/06/21 06:07:04;;;;;;;26.75;17.63;;;20.90;94.70;;;;;;5134030;28;20020;-76
2023/06/21 06:09:30;;;;;;;27.98;17.65;;;20.90;94.70;;;;;;5116085;28;20020;-77
2023/06/21 06:11:56;;;;;;;26.73;17.33;;;20.90;94.70;;;;;;5133978;28;20053;-77
2023/06/21 06:14:23;;;;;;;27.55;17.70;;;20.90;94.60;;;;;;5133946;28;20088;-77
2023/06/21 06:16:48;;;;;;;28.98;18.23;;;21.00;94.60;;;;;;5116015;28;20039;-77
2023/06/21 06:19:14;;;;;;;28.65;18.38;;;21.10;94.40;;;;;;5099250;28;20031;-77
2023/06/21 06:21:41;;;;;;;29.45;19.42;;;21.10;94.00;;;;;;5133809;28;20059;-77
2023/06/21 06:24:06;;;;;;;29.17;19.13;;;21.10;93.90;;;;;;5115619;28;20069;-77
2023/06/21 06:26:32;;;;;;;29.60;19.58;;;21.20;93.90;;;;;;5098926;28;20095;-77
2023/06/21 06:28:58;;;;;;;24.20;16.92;;;21.20;94.00;;;;;;5115723;28;20027;-78
2023/06/21 06:31:25;;;;;;;24.92;15.98;;;21.10;93.40;;;;;;5099049;28;20021;-78
2023/06/21 06:33:51;;;;;;;23.95;15.98;;;21.10;93.30;;;;;;5133648;28;20023;-81
2023/06/21 06:36:17;;;;;;;25.05;15.98;;;21.10;93.00;;;;;;5115754;28;20363;-81
2023/06/21 06:38:46;;;;;;;24.38;16.27;;;21.10;93.00;;;;;;5133696;28;20091;-81
2023/06/21 06:41:12;;;;;;;26.35;17.15;;;21.10;93.00;;;;;;5133616;28;20024;-80
2023/06/21 06:43:38;;;;;;;26.30;17.08;;;21.10;93.20;;;;;;5098854;28;20048;-80
2023/06/21 06:46:04;;;;;;;25.95;16.10;;;21.10;93.30;;;;;;5133603;28;20037;-80
2023/06/21 06:48:29;;;;;;;22.15;15.02;;;21.20;93.30;;;;;;5135925;28;20375;-79
2023/06/21 06:51:13;;;;;;;26.08;15.98;;;21.20;93.20;;;;;;5137452;28;20071;-81
2023/06/21 06:54:06;;;;;;;53.00;18.05;;;21.20;93.10;;;;;;5102629;28;20023;-82
2023/06/21 06:56:41;;;;;;;26.85;15.52;;;21.30;93.10;;;;;;5119142;28;20040;-82
2023/06/21 07:02:15;;;;;;;26.50;15.88;;;21.30;93.40;;;;;;5134699;28;20493;-78
2023/06/21 07:04:50;;;;;;;26.40;16.55;;;21.40;93.10;;;;;;5137346;28;20076;-77
2023/06/21 07:07:16;;;;;;;25.52;15.27;;;21.50;92.80;;;;;;5119094;28;20058;-79
2023/06/21 07:09:41;;;;;;;26.00;15.27;;;21.50;92.50;;;;;;5119157;28;20019;-78
2023/06/21 07:12:07;;;;;;;24.05;14.32;;;21.50;92.20;;;;;;5119240;28;20036;-77
2023/06/21 07:14:33;;;;;;;23.70;14.60;;;21.50;92.20;;;;;;5119050;28;20035;-78
2023/06/21 07:16:59;;;;;;;21.50;13.52;;;21.60;92.10;;;;;;5102099;28;20020;-77
2023/06/21 07:19:24;;;;;;;21.85;12.98;;;21.70;92.10;;;;;;5118870;28;20065;-77
2023/06/21 07:21:50;;;;;;;21.65;14.05;;;21.70;91.80;;;;;;5137014;28;20031;-77
2023/06/21 07:24:15;;;;;;;21.77;13.98;;;21.70;91.90;;;;;;5136945;28;20038;-78
2023/06/21 07:26:41;;;;;;;22.85;13.48;;;21.80;91.90;;;;;;5136913;28;20050;-79
2023/06/21 07:32:47;;;;;;;19.88;12.95;;;22.00;91.40;;;;;;5136908;28;20057;-79
2023/06/21 07:35:25;;;;;;;22.08;13.77;;;22.10;91.60;;;;;;5136739;28;20028;-79
2023/06/21 07:38:52;;;;;;;22.75;14.07;;;22.00;91.40;;;;;;5101701;28;20023;-79
2023/06/21 07:41:17;;;;;;;21.98;13.15;;;22.00;91.60;;;;;;5091157;28;20027;-80
2023/06/21 07:44:04;;;;;;;17.73;12.05;;;22.10;90.70;;;;;;5137420;28;20015;-80
2023/06/21 07:46:30;;;;;;;15.60;10.15;;;22.10;90.60;;;;;;5119286;28;20049;-80
2023/06/21 07:48:56;;;;;;;16.17;9.35;;;22.20;90.10;;;;;;5118487;28;20095;-79
2023/06/21 07:51:21;;;;;;;14.43;9.02;;;22.30;89.60;;;;;;5084630;28;20052;-79
2023/06/21 07:53:47;;;;;;;14.75;10.32;;;22.40;89.50;;;;;;5101658;28;20083;-79
2023/06/21 07:56:14;;;;;;;16.35;10.05;;;22.40;89.80;;;;;;5101453;28;20459;-79
2023/06/21 07:58:42;;;;;;;15.55;9.55;;;22.40;89.70;;;;;;5135999;28;20020;-79
2023/06/21 08:01:08;;;;;;;15.48;9.98;;;22.40;90.10;;;;;;5101449;28;20033;-78
2023/06/21 08:03:33;;;;;;;19.90;12.27;;;22.50;90.00;;;;;;5118309;28;20024;-78
2023/06/21 08:05:59;;;;;;;18.30;11.20;;;22.50;87.20;;;;;;5101243;28;20046;-77
2023/06/21 08:08:25;;;;;;;17.52;11.35;;;22.50;87.50;;;;;;5118201;28;20036;-78
2023/06/21 08:10:50;;;;;;;17.80;11.00;;;22.60;88.50;;;;;;5101127;28;20035;-77
2023/06/21 08:13:22;;;;;;;16.35;10.43;;;22.60;89.40;;;;;;5101261;28;20027;-72
2023/06/21 08:26:07;;;;;;;13.93;8.68;;;22.60;88.20;;;;;;5053332;28;20077;-78
2023/06/21 08:28:33;;;;;;;13.77;9.23;;;22.60;84.10;;;;;;5036519;28;20038;-78
2023/06/21 08:30:58;;;;;;;13.57;9.90;;;22.60;85.00;;;;;;5114942;28;20152;-77
2023/06/21 08:33:24;;;;;;;13.50;8.25;;;22.70;84.80;;;;;;5135597;28;20035;-77
2023/06/21 08:35:49;;;;;;;13.45;8.90;;;22.80;83.50;;;;;;5084034;28;20012;-77
2023/06/21 08:38:15;;;;;;;12.40;8.60;;;22.80;82.90;;;;;;5117569;28;20032;-77
2023/06/21 08:47:39;;;;;;;11.55;7.97;;;23.00;83.60;;;;;;5052896;28;20198;-78
2023/06/21 08:50:11;;;;;;;13.35;8.45;;;23.00;81.20;;;;;;5116137;28;20047;-76
2023/06/21 08:52:49;;;;;;;11.77;7.90;;;23.00;82.20;;;;;;5135213;28;20020;-78
2023/06/21 08:55:17;;;;;;;11.55;7.38;;;23.00;80.60;;;;;;5100429;28;20035;-78
2023/06/21 08:57:58;;;;;;;13.10;8.50;;;23.00;81.90;;;;;;5135250;28;20012;-77
2023/06/21 09:00:36;;;;;;;11.20;7.40;;;23.00;83.50;;;;;;5135095;28;20044;-77
2023/06/21 09:03:19;;;;;;;9.20;6.20;;;23.10;82.70;;;;;;5135031;28;20024;-77
2023/06/21 09:05:50;;;;;;;11.52;8.07;;;23.30;80.60;;;;;;5117211;28;20024;-77
2023/06/21 09:08:16;;;;;;;12.30;8.40;;;23.40;80.20;;;;;;5134914;28;20019;-77
2023/06/21 09:10:43;;;;;;;13.00;6.90;;;23.40;81.70;;;;;;5134191;28;20043;-77
2023/06/21 09:13:10;;;;;;;7.20;4.78;;;23.40;81.00;;;;;;5116810;28;20083;-77
2023/06/21 09:15:55;;;;;;;7.72;5.20;;;23.50;78.30;;;;;;5134803;28;20030;-77
2023/06/21 09:18:37;;;;;;;8.32;5.88;;;23.50;78.90;;;;;;5116878;28;20028;-76
2023/06/21 09:21:22;;;;;;;7.32;5.47;;;23.60;77.20;;;;;;5116965;28;20027;-77
2023/06/21 09:23:50;;;;;;;9.00;6.22;;;23.70;79.10;;;;;;5134716;28;20034;-77
2023/06/21 09:26:16;;;;;;;8.73;6.15;;;23.80;78.10;;;;;;5099842;28;20047;-77
2023/06/21 09:28:43;;;;;;;8.18;6.60;;;23.80;77.60;;;;;;5134487;28;20053;-77
2023/06/21 09:31:09;;;;;;;9.65;7.15;;;23.90;78.10;;;;;;5083398;28;20028;-77
2023/06/21 09:33:36;;;;;;;9.50;7.10;;;24.00;75.70;;;;;;5116646;28;20498;-77
2023/06/21 09:36:06;;;;;;;11.32;7.85;;;24.10;75.80;;;;;;5134463;28;20024;-77
2023/06/21 09:38:35;;;;;;;13.23;10.23;;;24.10;78.10;;;;;;5134479;28;20027;-77
2023/06/21 09:41:01;;;;;;;11.15;8.27;;;24.30;78.40;;;;;;5134383;28;20020;-77
2023/06/21 09:43:27;;;;;;;9.82;8.18;;;24.40;77.50;;;;;;5134230;28;20030;-77
2023/06/21 09:46:11;;;;;;;10.48;8.15;;;24.30;75.80;;;;;;5134287;28;20043;-77
2023/06/21 09:48:38;;;;;;;11.18;8.57;;;24.40;74.40;;;;;;5134342;28;20016;-79
2023/06/21 09:51:10;;;;;;;8.52;7.15;;;24.40;74.10;;;;;;5133936;28;20095;-77
2023/06/21 09:53:36;;;;;;;10.93;6.38;;;24.40;73.40;;;;;;5134234;28;20080;-77
2023/06/21 09:56:03;;;;;;;7.57;6.20;;;24.40;72.80;;;;;;5099314;28;20031;-78
2023/06/21 09:58:33;;;;;;;10.00;5.95;;;24.40;74.30;;;;;;5116074;28;20020;-77
2023/06/21 10:00:59;;;;;;;7.45;5.65;;;24.50;70.00;;;;;;5115969;28;20023;-77
2023/06/21 10:03:25;;;;;;;8.98;7.05;;;24.50;70.20;;;;;;5133942;28;20038;-77
2023/06/21 10:06:03;;;;;;;10.88;7.05;;;24.50;70.60;;;;;;5099137;28;20038;-77
2023/06/21 10:08:33;;;;;;;11.27;7.45;;;24.50;72.60;;;;;;5134175;28;20046;-76
2023/06/21 10:11:01;;;;;;;9.65;6.97;;;24.60;71.50;;;;;;5116243;28;20050;-76
2023/06/21 10:13:34;;;;;;;6.80;5.68;;;24.70;71.50;;;;;;5115844;28;20023;-77
2023/06/21 10:16:03;;;;;;;8.07;5.55;;;24.90;71.30;;;;;;5133967;28;20028;-77
2023/06/21 10:18:29;;;;;;;8.00;5.60;;;25.10;70.10;;;;;;5133915;28;20091;-77
2023/06/21 10:21:03;;;;;;;7.57;5.60;;;25.20;70.00;;;;;;5134100;28;20057;-76
2023/06/21 10:23:31;;;;;;;6.15;4.82;;;25.30;69.10;;;;;;5120010;28;20028;-77
2023/06/21 10:26:12;;;;;;;6.80;4.75;;;25.30;69.40;;;;;;5120194;28;20024;-77
2023/06/21 10:28:42;;;;;;;6.53;4.10;;;25.20;66.20;;;;;;5120010;28;20030;-77
2023/06/21 10:31:12;;;;;;;4.68;3.78;;;25.20;66.00;;;;;;5119984;28;20030;-77
2023/06/21 10:33:38;;;;;;;5.22;3.50;;;25.20;66.50;;;;;;5103093;28;20103;-77
2023/06/21 10:36:08;;;;;;;7.82;4.70;;;25.10;67.10;;;;;;5102902;28;20024;-77
2023/06/21 10:38:52;;;;;;;7.63;5.10;;;25.20;66.40;;;;;;5119882;28;20027;-77
2023/06/21 10:41:19;;;;;;;6.07;4.65;;;25.20;66.30;;;;;;5120013;28;20087;-77
2023/06/21 10:43:44;;;;;;;5.68;4.22;;;25.30;68.80;;;;;;5086349;28;20041;-77
2023/06/21 10:46:11;;;;;;;7.45;4.97;;;25.30;65.70;;;;;;5119682;28;20028;-76
2023/06/21 10:48:37;;;;;;;6.75;4.80;;;25.30;68.60;;;;;;5137735;28;20024;-77
2023/06/21 10:51:04;;;;;;;6.13;3.85;;;25.40;67.70;;;;;;5137386;28;20177;-77
2023/06/21 10:53:33;;;;;;;5.80;3.78;;;25.50;67.30;;;;;;5137683;28;20024;-77
2023/06/21 10:56:07;;;;;;;5.07;3.13;;;25.50;66.50;;;;;;5103105;28;20024;-77
2023/06/21 10:58:33;;;;;;;6.45;4.35;;;25.60;66.50;;;;;;5137745;28;20049;-77
2023/06/21 11:00:59;;;;;;;5.70;3.88;;;25.50;66.40;;;;;;5137514;28;20047;-76
2023/06/21 11:03:26;;;;;;;5.88;4.22;;;25.50;66.40;;;;;;5137353;28;20587;-76
2023/06/21 11:06:23;;;;;;;6.47;4.80;;;25.70;67.00;;;;;;5119293;28;20081;-77
2023/06/21 11:08:49;;;;;;;6.53;4.97;;;25.90;69.70;;;;;;5137396;28;20027;-77
2023/06/21 11:11:32;;;;;;;5.32;3.88;;;25.90;67.70;;;;;;5119402;28;20024;-77
2023/06/21 11:14:01;;;;;;;7.47;4.88;;;26.00;68.40;;;;;;5137287;28;20047;-77
2023/06/21 11:16:29;;;;;;;6.07;4.25;;;26.10;68.90;;;;;;5119208;28;20028;-76
2023/06/21 11:18:59;;;;;;;7.03;4.80;;;26.30;65.80;;;;;;5137122;28;20030;-76
2023/06/21 11:21:48;;;;;;;6.57;4.63;;;26.30;65.90;;;;;;5119789;28;20023;-76
2023/06/21 11:24:22;;;;;;;5.43;3.70;;;26.40;66.30;;;;;;5137144;28;20020;-77
2023/06/21 11:27:14;;;;;;;5.68;3.63;;;26.20;64.00;;;;;;5119201;28;20020;-77
2023/06/21 11:29:41;;;;;;;5.18;3.67;;;26.30;64.20;;;;;;5114441;28;20039;-77
2023/06/21 11:32:11;;;;;;;5.75;4.03;;;26.30;65.00;;;;;;5136882;28;20079;-77
2023/06/21 11:34:50;;;;;;;6.63;4.35;;;26.40;62.70;;;;;;5117974;28;20025;-76
2023/06/21 11:37:49;;;;;;;6.40;3.88;;;26.30;62.80;;;;;;5118988;28;20027;-77
2023/06/21 11:40:24;;;;;;;5.40;4.07;;;26.30;64.10;;;;;;5118719;28;20027;-77
2023/06/21 11:42:52;;;;;;;5.10;4.15;;;26.40;63.90;;;;;;5118577;28;20030;-76
2023/06/21 11:45:24;;;;;;;5.75;4.40;;;26.50;64.30;;;;;;5118522;28;20020;-77
2023/06/21 11:48:02;;;;;;;5.47;4.00;;;26.60;62.70;;;;;;5118735;28;20039;-77
2023/06/21 11:50:38;;;;;;;6.47;4.47;;;26.70;63.40;;;;;;5136381;28;20051;-77
2023/06/21 11:53:23;;;;;;;6.60;4.30;;;26.90;63.50;;;;;;5118475;28;20035;-76
2023/06/21 11:55:51;;;;;;;5.28;3.90;;;27.00;62.40;;;;;;5118396;28;20024;-77
2023/06/21 11:58:17;;;;;;;5.75;3.03;;;26.90;61.00;;;;;;5136397;28;20094;-77
2023/06/21 12:00:45;;;;;;;4.70;2.90;;;26.90;62.70;;;;;;5118315;28;20034;-76
2023/06/21 12:03:11;;;;;;;4.93;3.38;;;26.90;62.20;;;;;;5118144;28;20046;-77
2023/06/21 12:05:54;;;;;;;4.95;3.13;;;26.90;62.00;;;;;;5136253;28;20015;-76
2023/06/21 12:08:23;;;;;;;3.00;2.55;;;27.00;62.90;;;;;;5136394;28;20024;-77
2023/06/21 12:10:48;;;;;;;6.20;3.00;;;27.10;61.80;;;;;;5136104;28;20016;-77
2023/06/21 12:13:17;;;;;;;5.13;2.85;;;27.10;60.00;;;;;;5136127;28;20046;-76
2023/06/21 12:15:47;;;;;;;3.42;2.60;;;27.10;60.70;;;;;;5118026;28;20042;-77
2023/06/21 12:18:14;;;;;;;2.78;1.85;;;27.30;60.70;;;;;;5101292;28;20098;-77
2023/06/21 12:20:40;;;;;;;3.47;2.00;;;27.20;59.30;;;;;;5136109;28;20020;-76
2023/06/21 12:23:10;;;;;;;3.88;2.25;;;27.30;58.60;;;;;;5135833;28;20111;-76
2023/06/21 12:25:47;;;;;;;3.22;1.98;;;27.40;59.10;;;;;;5117977;28;20035;-76
2023/06/21 12:28:13;;;;;;;4.07;2.53;;;27.40;59.50;;;;;;5135775;28;20030;-76
2023/06/21 12:30:49;;;;;;;2.88;2.08;;;27.30;60.60;;;;;;5117487;28;20027;-77
2023/06/21 12:33:16;;;;;;;3.17;2.20;;;27.30;59.10;;;;;;5135615;28;20038;-77
2023/06/21 12:35:43;;;;;;;3.72;2.00;;;27.40;58.40;;;;;;5117624;28;20032;-77
2023/06/21 12:38:19;;;;;;;3.20;2.15;;;27.50;58.30;;;;;;5117686;28;20027;-77
2023/06/21 12:40:59;;;;;;;3.65;2.28;;;27.50;57.50;;;;;;5135488;28;20390;-77
2023/06/21 12:43:53;;;;;;;4.28;2.33;;;27.60;57.80;;;;;;5117516;28;20057;-77
2023/06/21 12:46:19;;;;;;;4.03;2.17;;;27.60;56.90;;;;;;5113624;28;20031;-76
2023/06/21 12:48:56;;;;;;;6.32;2.33;;;27.60;57.20;;;;;;5117568;28;20055;-76
2023/06/21 12:51:28;;;;;;;3.25;2.03;;;27.60;56.60;;;;;;5135247;28;20038;-76
2023/06/21 12:54:16;;;;;;;4.15;2.42;;;27.50;57.70;;;;;;5135362;28;20028;-77
2023/06/21 12:56:45;;;;;;;4.22;2.28;;;27.50;57.20;;;;;;5117278;28;20077;-77
2023/06/21 12:59:11;;;;;;;3.63;2.58;;;27.40;57.40;;;;;;5117220;28;20015;-77
2023/06/21 13:01:38;;;;;;;4.07;2.40;;;27.20;56.70;;;;;;5117074;28;20028;-80
2023/06/21 13:04:09;;;;;;;4.30;2.80;;;27.10;57.80;;;;;;5135084;28;20019;-76
2023/06/21 13:06:35;;;;;;;3.72;2.40;;;27.20;57.80;;;;;;5135117;28;20079;-76
2023/06/21 13:09:01;;;;;;;4.13;2.45;;;27.10;56.50;;;;;;5117166;28;20028;-77